Time;durP1;ratioP1;P1;durP2;ratioP2;P2;SDS_P1;SDS_P2;PMS_P1;PMS_P2;Temp;Humidity;BMP_temperature;BMP_pressure;BME280_temperature;BME280_humidity;BME280_pressure;Samples;Min_cycle;Max_cycle;Signal;HPM_P1;HPM_P2
2022/01/20 00:01:59;;;;;;;8.57;3.95;;;4.80;99.90;;;;;;5089152;28;21278;-61
2022/01/20 00:04:43;;;;;;;8.50;3.80;;;6.00;99.90;;;;;;5088707;28;20422;-61
2022/01/20 00:07:28;;;;;;;7.95;3.90;;;4.70;99.90;;;;;;5088988;28;20385;-61
2022/01/20 00:26:00;;;;;;;7.32;3.13;;;4.50;99.90;;;;;;5092296;28;20373;-61
2022/01/20 00:28:39;;;;;;;5.90;2.75;;;4.60;99.90;;;;;;5091279;28;20390;-61
2022/01/20 00:33:41;;;;;;;6.95;2.85;;;4.50;99.90;;;;;;5091987;28;20408;-61
2022/01/20 00:38:33;;;;;;;7.45;2.88;;;4.50;99.90;;;;;;5091643;28;20378;-61
2022/01/20 00:40:59;;;;;;;6.85;2.97;;;4.40;99.90;;;;;;5092525;28;20858;-61
2022/01/20 00:43:25;;;;;;;6.40;2.20;;;4.40;99.90;;;;;;5091180;28;20398;-61
2022/01/20 00:45:51;;;;;;;5.33;1.97;;;4.40;99.90;;;;;;5091581;28;20992;-60
2022/01/20 00:48:17;;;;;;;5.00;2.00;;;4.30;99.90;;;;;;5092513;28;20405;-61
2022/01/20 00:50:43;;;;;;;5.27;1.60;;;4.30;99.90;;;;;;5091271;28;20382;-61
2022/01/20 00:53:08;;;;;;;5.20;1.85;;;4.30;99.90;;;;;;5092600;28;20912;-61
2022/01/20 00:55:34;;;;;;;5.00;1.73;;;4.30;99.90;;;;;;5091495;28;20389;-61
2022/01/20 00:58:00;;;;;;;5.03;1.70;;;4.30;99.90;;;;;;5092195;28;20386;-61
2022/01/20 01:00:26;;;;;;;4.97;1.80;;;6.10;99.90;;;;;;5092421;28;20382;-61
2022/01/20 01:02:51;;;;;;;4.80;1.50;;;4.30;99.90;;;;;;5091573;28;20401;-61
2022/01/20 01:05:17;;;;;;;3.90;1.23;;;4.20;99.90;;;;;;5090603;28;20417;-61
2022/01/20 01:07:48;;;;;;;4.18;1.33;;;4.20;99.90;;;;;;5090661;28;20477;-62
2022/01/20 01:10:21;;;;;;;3.80;1.00;;;4.10;99.90;;;;;;5091882;28;20423;-61
2022/01/20 01:12:50;;;;;;;3.50;0.90;;;4.00;99.90;;;;;;5091168;28;20385;-60
2022/01/20 01:15:24;;;;;;;4.00;1.00;;;4.00;99.90;;;;;;5091903;28;20492;-60
2022/01/20 01:23:18;;;;;;;3.70;0.90;;;6.10;99.90;;;;;;5091619;28;20436;-60
2022/01/20 01:25:44;;;;;;;3.92;1.15;;;4.10;99.90;;;;;;5090997;28;20402;-61
2022/01/20 01:28:10;;;;;;;3.60;0.80;;;4.00;99.90;;;;;;5090100;28;20397;-60
2022/01/20 01:30:55;;;;;;;3.93;1.00;;;4.10;99.90;;;;;;5090376;28;20382;-61
2022/01/20 01:33:21;;;;;;;3.63;0.77;;;4.10;99.90;;;;;;5091214;28;20412;-60
2022/01/20 01:35:55;;;;;;;3.40;0.88;;;4.00;99.90;;;;;;5090561;28;20383;-61
2022/01/20 01:38:35;;;;;;;3.70;0.93;;;4.10;99.90;;;;;;5091436;28;20362;-60
2022/01/20 01:41:07;;;;;;;3.30;0.82;;;4.00;99.90;;;;;;5091608;28;20899;-61
2022/01/20 01:43:33;;;;;;;3.70;0.88;;;4.00;99.90;;;;;;5090561;28;20489;-61
2022/01/20 01:46:00;;;;;;;3.50;0.80;;;4.10;99.90;;;;;;5090709;28;20501;-60
2022/01/20 01:48:27;;;;;;;3.88;1.00;;;4.10;99.90;;;;;;5123288;27;20981;-60
2022/01/20 01:50:53;;;;;;;3.90;1.17;;;4.30;99.90;;;;;;5090357;28;20453;-60
2022/01/20 01:53:18;;;;;;;3.80;0.90;;;4.10;99.90;;;;;;5091043;28;20469;-60
2022/01/20 01:55:44;;;;;;;3.60;1.00;;;5.90;99.90;;;;;;5090629;28;20444;-60
2022/01/20 01:58:10;;;;;;;3.90;1.10;;;4.10;99.90;;;;;;5091004;28;20830;-60
2022/01/20 02:00:35;;;;;;;4.30;1.30;;;4.10;99.90;;;;;;5090322;28;20898;-61
2022/01/20 02:03:02;;;;;;;4.60;1.40;;;4.10;99.90;;;;;;5091113;28;20395;-61
2022/01/20 02:05:28;;;;;;;4.22;1.40;;;4.10;99.90;;;;;;5090943;28;20882;-60
2022/01/20 02:21:01;;;;;;;3.97;1.30;;;3.90;99.90;;;;;;5090599;28;20379;-60
2022/01/20 02:23:27;;;;;;;4.40;1.50;;;3.90;99.90;;;;;;5090425;28;20417;-60
2022/01/20 02:25:53;;;;;;;4.13;1.27;;;4.10;99.90;;;;;;5089916;28;20386;-60
2022/01/20 02:28:19;;;;;;;4.40;1.48;;;3.90;99.90;;;;;;5089220;28;20444;-60
2022/01/20 02:30:45;;;;;;;4.07;1.50;;;3.90;99.90;;;;;;5089590;28;20374;-61
2022/01/20 02:33:16;;;;;;;4.50;1.50;;;4.90;99.90;;;;;;5090248;28;20491;-60
2022/01/20 02:35:54;;;;;;;4.90;1.60;;;4.00;99.90;;;;;;5089700;28;20393;-61
2022/01/20 02:38:28;;;;;;;4.45;1.60;;;5.40;99.90;;;;;;5088912;28;20473;-61
2022/01/20 02:46:22;;;;;;;5.15;2.25;;;4.10;99.90;;;;;;5089015;28;20696;-60
2022/01/20 02:48:48;;;;;;;5.60;2.40;;;4.10;99.90;;;;;;5089436;28;20405;-60
2022/01/20 02:51:14;;;;;;;6.67;2.50;;;4.00;99.90;;;;;;5090174;28;20379;-60
2022/01/20 02:53:39;;;;;;;4.73;2.10;;;4.10;99.90;;;;;;5089119;28;20411;-60
2022/01/20 02:56:05;;;;;;;5.20;2.30;;;4.00;99.90;;;;;;5090137;28;20773;-60
2022/01/20 02:58:31;;;;;;;5.97;2.60;;;4.00;99.90;;;;;;5089664;28;20554;-60
2022/01/20 03:00:57;;;;;;;6.30;2.92;;;4.00;99.90;;;;;;5089528;28;20407;-61
2022/01/20 03:03:23;;;;;;;5.80;2.53;;;4.10;99.90;;;;;;5088700;28;20412;-60
2022/01/20 03:05:49;;;;;;;6.53;2.73;;;4.10;99.90;;;;;;5089099;28;20382;-59
2022/01/20 03:08:14;;;;;;;6.50;2.85;;;4.00;99.90;;;;;;5089799;28;20370;-60
2022/01/20 03:10:40;;;;;;;6.50;2.63;;;3.90;99.90;;;;;;5089281;28;20383;-60
2022/01/20 03:13:06;;;;;;;6.00;2.50;;;3.90;99.90;;;;;;5089845;28;20796;-60
2022/01/20 03:15:34;;;;;;;6.72;3.00;;;4.00;99.90;;;;;;5089265;28;20872;-61
2022/01/20 03:18:01;;;;;;;5.80;2.73;;;3.90;99.90;;;;;;5089899;28;20393;-60
2022/01/20 03:20:27;;;;;;;6.50;2.90;;;3.90;99.90;;;;;;5089547;28;20394;-59
2022/01/20 03:22:52;;;;;;;6.20;2.60;;;3.90;99.90;;;;;;5087501;28;20491;-60
2022/01/20 03:25:18;;;;;;;6.00;2.60;;;3.90;99.90;;;;;;5089796;28;20412;-60
2022/01/20 03:27:44;;;;;;;6.80;3.20;;;3.80;99.90;;;;;;5088772;28;20385;-62
2022/01/20 03:30:10;;;;;;;6.40;3.10;;;3.90;99.90;;;;;;5089574;28;20378;-61
2022/01/20 03:32:36;;;;;;;6.18;2.65;;;3.90;99.90;;;;;;5087863;28;20381;-62
2022/01/20 03:35:04;;;;;;;7.40;3.40;;;3.80;99.90;;;;;;5089362;28;20389;-61
2022/01/20 03:37:29;;;;;;;5.72;3.00;;;3.80;99.90;;;;;;5089425;28;20378;-62
2022/01/20 03:39:55;;;;;;;5.30;2.40;;;3.90;99.90;;;;;;5088702;28;20658;-61
2022/01/20 03:42:21;;;;;;;7.10;3.13;;;3.80;99.90;;;;;;5089311;28;20461;-61
2022/01/20 03:44:46;;;;;;;6.63;3.20;;;3.90;99.90;;;;;;5088267;28;20469;-62
2022/01/20 03:47:12;;;;;;;6.60;2.95;;;3.90;99.90;;;;;;5089502;28;20390;-61
2022/01/20 03:52:05;;;;;;;6.63;2.90;;;3.70;99.90;;;;;;5088791;28;20375;-61
2022/01/20 03:54:31;;;;;;;6.90;3.20;;;3.80;99.90;;;;;;5089315;28;20381;-61
2022/01/20 03:56:57;;;;;;;6.65;3.38;;;3.80;99.90;;;;;;5089462;28;20384;-61
2022/01/20 03:59:22;;;;;;;6.97;4.03;;;3.80;99.90;;;;;;5093442;28;20831;-62
2022/01/20 04:01:48;;;;;;;6.70;3.80;;;3.80;99.90;;;;;;5092473;28;20390;-62
2022/01/20 04:04:14;;;;;;;7.03;3.70;;;3.80;99.90;;;;;;5093256;28;20428;-61
2022/01/20 04:06:40;;;;;;;7.95;4.00;;;3.80;99.90;;;;;;5092348;28;20829;-62
2022/01/20 04:09:05;;;;;;;8.40;3.90;;;3.80;99.90;;;;;;5092803;28;20370;-61
2022/01/20 04:11:31;;;;;;;6.50;3.30;;;3.80;99.90;;;;;;5092780;28;20409;-61
2022/01/20 04:13:57;;;;;;;7.82;3.58;;;3.80;99.90;;;;;;5092277;28;20374;-61
2022/01/20 04:16:37;;;;;;;6.85;3.83;;;3.90;99.90;;;;;;5092728;28;20409;-61
2022/01/20 04:19:14;;;;;;;6.87;3.37;;;3.80;99.90;;;;;;5093002;28;20915;-61
2022/01/20 04:21:42;;;;;;;8.15;3.70;;;3.70;99.90;;;;;;5092172;28;20386;-61
2022/01/20 04:24:08;;;;;;;8.23;3.60;;;3.70;99.90;;;;;;5092807;28;20512;-61
2022/01/20 04:26:35;;;;;;;7.90;3.60;;;4.60;99.90;;;;;;5092326;28;20410;-61
2022/01/20 04:29:02;;;;;;;6.97;3.50;;;3.70;99.90;;;;;;5091031;28;20473;-61
2022/01/20 04:31:30;;;;;;;7.30;3.70;;;4.20;99.90;;;;;;5092107;28;20371;-61
2022/01/20 04:33:57;;;;;;;7.50;4.10;;;5.00;99.90;;;;;;5091498;28;20413;-61
2022/01/20 04:36:24;;;;;;;8.38;4.28;;;5.50;99.90;;;;;;5092348;28;20374;-61
2022/01/20 04:38:50;;;;;;;8.40;4.80;;;3.90;99.90;;;;;;5091082;28;20460;-61
2022/01/20 04:41:16;;;;;;;9.00;4.45;;;3.90;99.90;;;;;;5092145;28;20374;-61
2022/01/20 04:43:42;;;;;;;8.40;4.70;;;3.90;99.90;;;;;;5089702;28;20739;-61
2022/01/20 04:46:19;;;;;;;7.50;3.83;;;4.10;99.90;;;;;;5090294;28;20458;-61
2022/01/20 04:57:21;;;;;;;8.13;4.05;;;4.90;99.90;;;;;;5089205;28;20377;-61
2022/01/20 04:59:50;;;;;;;7.00;3.50;;;3.60;99.90;;;;;;5089960;28;21003;-61
2022/01/20 05:02:16;;;;;;;7.45;3.55;;;3.50;99.90;;;;;;5091919;28;20413;-61
2022/01/20 05:04:42;;;;;;;8.52;4.13;;;3.50;99.90;;;;;;5090823;28;20530;-61
2022/01/20 05:07:10;;;;;;;7.60;3.90;;;3.60;99.90;;;;;;5090964;28;20402;-61
2022/01/20 05:09:36;;;;;;;8.75;3.78;;;4.00;99.90;;;;;;5090312;28;20447;-62
2022/01/20 05:12:07;;;;;;;8.40;4.30;;;3.50;99.90;;;;;;5090991;28;20374;-60
2022/01/20 05:14:33;;;;;;;9.43;4.70;;;3.60;99.90;;;;;;5089026;28;20439;-61
2022/01/20 05:16:59;;;;;;;8.73;4.45;;;3.70;99.90;;;;;;5090517;28;20418;-61
2022/01/20 05:19:26;;;;;;;8.23;3.80;;;3.80;99.90;;;;;;5091441;28;20410;-60
2022/01/20 05:21:52;;;;;;;8.20;4.05;;;3.70;99.90;;;;;;5087959;28;20449;-61
2022/01/20 05:24:18;;;;;;;9.25;4.70;;;4.50;99.90;;;;;;5090889;28;20405;-61
2022/01/20 05:26:43;;;;;;;8.68;4.22;;;4.60;99.90;;;;;;5090847;28;20847;-61
2022/01/20 05:29:09;;;;;;;9.10;4.03;;;3.70;99.90;;;;;;5091123;28;20863;-61
2022/01/20 05:31:35;;;;;;;10.30;4.20;;;3.60;99.90;;;;;;5091206;28;20378;-61
2022/01/20 05:34:01;;;;;;;7.63;3.53;;;3.70;99.90;;;;;;5090344;28;20386;-60
2022/01/20 05:36:26;;;;;;;7.50;3.67;;;3.50;99.90;;;;;;5090866;28;20771;-61
2022/01/20 05:38:52;;;;;;;8.32;4.05;;;3.60;99.90;;;;;;5089963;28;20454;-61
2022/01/20 05:41:18;;;;;;;8.38;4.00;;;3.50;99.90;;;;;;5090869;28;20507;-61
2022/01/20 05:43:44;;;;;;;9.25;3.95;;;3.60;99.90;;;;;;5089793;28;20607;-61
2022/01/20 05:46:10;;;;;;;7.50;3.65;;;3.60;99.90;;;;;;5094638;28;20991;-61
2022/01/20 05:48:36;;;;;;;9.07;3.63;;;4.20;99.90;;;;;;5099220;28;20435;-61
2022/01/20 05:51:05;;;;;;;10.85;4.40;;;3.50;99.90;;;;;;5098475;28;20852;-61
2022/01/20 05:53:32;;;;;;;11.23;5.18;;;3.60;99.90;;;;;;5107990;28;20380;-61
2022/01/20 05:55:58;;;;;;;9.63;4.78;;;3.80;99.90;;;;;;5076980;28;20365;-61
2022/01/20 05:58:24;;;;;;;8.97;4.83;;;3.80;99.90;;;;;;5104180;28;20396;-61
2022/01/20 06:00:50;;;;;;;13.40;5.87;;;3.80;99.90;;;;;;5083290;28;20374;-61
2022/01/20 06:06:01;;;;;;;13.02;5.95;;;3.80;99.90;;;;;;5079240;28;20383;-61
2022/01/20 06:08:27;;;;;;;12.52;5.95;;;3.70;99.90;;;;;;5087528;28;20396;-61
2022/01/20 06:10:52;;;;;;;11.90;5.78;;;3.70;99.90;;;;;;5087683;28;20398;-61
2022/01/20 06:13:18;;;;;;;11.02;5.95;;;3.70;99.90;;;;;;5085846;28;20478;-60
2022/01/20 06:15:45;;;;;;;11.75;6.50;;;4.00;99.90;;;;;;5081814;28;20880;-61
2022/01/20 06:18:10;;;;;;;12.85;6.32;;;3.50;99.90;;;;;;5084364;28;20389;-61
2022/01/20 06:20:38;;;;;;;12.98;6.80;;;3.60;99.90;;;;;;5085001;28;20383;-61
2022/01/20 06:23:06;;;;;;;13.43;6.10;;;3.60;99.90;;;;;;5098654;28;20496;-61
2022/01/20 06:25:32;;;;;;;12.75;6.20;;;3.60;99.90;;;;;;5090748;28;20420;-61
2022/01/20 06:28:00;;;;;;;12.82;6.40;;;3.70;99.90;;;;;;5088736;28;20510;-61
2022/01/20 06:30:25;;;;;;;12.57;5.30;;;3.70;99.90;;;;;;5090661;28;20378;-60
2022/01/20 06:32:54;;;;;;;15.40;6.25;;;3.60;99.90;;;;;;5090035;28;20896;-61
2022/01/20 06:35:20;;;;;;;13.97;6.17;;;3.60;99.90;;;;;;5090222;28;20400;-61
2022/01/20 06:37:47;;;;;;;11.82;5.20;;;5.00;99.90;;;;;;5089705;28;20477;-63
2022/01/20 06:40:13;;;;;;;14.70;6.07;;;2.40;99.90;;;;;;5089074;28;20422;-60
2022/01/20 06:42:40;;;;;;;14.00;6.80;;;3.60;99.90;;;;;;5090171;28;20755;-62
2022/01/20 06:45:08;;;;;;;13.63;6.60;;;3.60;99.90;;;;;;5090155;28;20392;-61
2022/01/20 06:47:34;;;;;;;10.48;6.50;;;3.40;99.90;;;;;;5090348;28;20489;-61
2022/01/20 06:50:00;;;;;;;12.93;6.43;;;3.50;99.90;;;;;;5089287;28;20443;-61
2022/01/20 06:52:26;;;;;;;11.40;5.60;;;3.40;99.90;;;;;;5088874;28;20397;-61
2022/01/20 06:54:52;;;;;;;11.52;5.90;;;3.40;99.90;;;;;;5089529;28;20465;-61
2022/01/20 06:57:18;;;;;;;13.00;6.10;;;3.40;99.90;;;;;;5089855;28;20749;-61
2022/01/20 06:59:44;;;;;;;15.30;6.13;;;3.40;99.90;;;;;;5089766;28;20451;-61
2022/01/20 07:02:09;;;;;;;10.90;5.30;;;3.40;99.90;;;;;;5090404;28;20378;-61
2022/01/20 07:04:37;;;;;;;11.90;4.90;;;3.30;99.90;;;;;;5084105;28;20402;-61
2022/01/20 07:07:02;;;;;;;12.57;5.32;;;3.30;99.90;;;;;;5086402;28;20447;-61
2022/01/20 07:09:28;;;;;;;10.13;4.80;;;3.20;99.90;;;;;;5090032;28;20386;-61
2022/01/20 07:11:54;;;;;;;9.20;4.53;;;4.80;99.90;;;;;;5089530;28;20764;-61
2022/01/20 07:14:19;;;;;;;9.73;4.90;;;3.20;99.90;;;;;;5089381;28;20390;-61
2022/01/20 07:16:47;;;;;;;9.47;4.57;;;3.50;99.90;;;;;;5088946;28;20397;-61
2022/01/20 07:19:13;;;;;;;11.10;4.90;;;3.10;99.90;;;;;;5089907;28;20394;-60
2022/01/20 07:21:39;;;;;;;10.17;4.30;;;3.20;99.90;;;;;;5088518;28;20389;-61
2022/01/20 07:24:05;;;;;;;11.90;4.70;;;3.20;99.90;;;;;;5069510;28;20403;-60
2022/01/20 07:26:31;;;;;;;12.40;4.93;;;3.10;99.90;;;;;;5069135;28;20384;-60
2022/01/20 07:28:56;;;;;;;8.60;4.07;;;3.10;99.90;;;;;;5068848;28;20869;-61
2022/01/20 07:31:23;;;;;;;10.93;4.70;;;3.60;99.90;;;;;;5068281;28;20383;-61
2022/01/20 07:33:50;;;;;;;9.35;4.75;;;4.30;99.90;;;;;;5068727;28;20431;-61
2022/01/20 07:36:16;;;;;;;10.77;5.40;;;3.20;99.90;;;;;;5068952;28;20375;-60
2022/01/20 07:38:41;;;;;;;15.25;5.28;;;3.20;99.90;;;;;;5068817;28;20384;-62
2022/01/20 07:41:07;;;;;;;12.73;5.40;;;3.10;99.90;;;;;;5089143;28;20388;-61
2022/01/20 07:43:33;;;;;;;13.13;5.50;;;3.10;99.90;;;;;;5088991;28;20402;-61
2022/01/20 07:45:58;;;;;;;12.43;5.10;;;3.10;99.90;;;;;;5088700;28;21004;-61
2022/01/20 07:48:24;;;;;;;11.80;5.03;;;3.10;99.90;;;;;;5089130;28;20414;-61
2022/01/20 07:50:50;;;;;;;13.65;5.82;;;3.10;99.90;;;;;;5088258;28;20385;-61
2022/01/20 07:53:15;;;;;;;14.87;5.67;;;4.20;99.90;;;;;;5089209;28;20761;-61
2022/01/20 07:55:41;;;;;;;11.52;5.63;;;3.30;99.90;;;;;;5088851;28;20378;-62
2022/01/20 07:58:07;;;;;;;11.68;5.72;;;3.30;99.90;;;;;;5089156;28;20439;-61
2022/01/20 08:00:33;;;;;;;14.30;7.10;;;3.30;99.90;;;;;;5089344;28;20465;-61
2022/01/20 08:02:58;;;;;;;14.13;6.03;;;3.50;99.90;;;;;;5088731;28;20413;-61
2022/01/20 08:05:24;;;;;;;13.90;5.70;;;3.40;99.90;;;;;;5089338;28;20378;-61
2022/01/20 08:07:50;;;;;;;13.07;6.13;;;4.90;99.90;;;;;;5088446;28;20378;-61
2022/01/20 08:10:16;;;;;;;12.70;5.40;;;3.30;99.90;;;;;;5089311;28;20401;-61
2022/01/20 08:12:43;;;;;;;11.00;5.45;;;3.30;99.90;;;;;;5088699;28;20386;-62
2022/01/20 08:15:12;;;;;;;12.55;5.20;;;3.70;99.90;;;;;;5089307;28;20394;-60
2022/01/20 08:17:42;;;;;;;11.52;5.38;;;3.40;99.90;;;;;;5089047;28;20493;-61
2022/01/20 08:20:08;;;;;;;12.65;4.90;;;3.40;99.90;;;;;;5089145;28;20450;-61
2022/01/20 08:22:34;;;;;;;11.25;5.50;;;3.50;99.90;;;;;;5088980;28;20374;-61
2022/01/20 08:25:15;;;;;;;12.87;4.93;;;3.50;99.90;;;;;;5088485;28;21022;-61
2022/01/20 08:27:42;;;;;;;11.02;4.18;;;3.50;99.90;;;;;;5088655;28;20386;-62
2022/01/20 08:30:11;;;;;;;10.40;5.00;;;3.50;99.90;;;;;;5088795;28;20390;-61
2022/01/20 08:32:37;;;;;;;13.57;5.18;;;3.60;99.90;;;;;;5089114;28;20408;-61
2022/01/20 08:35:06;;;;;;;16.67;4.63;;;5.10;99.90;;;;;;5088061;28;20902;-61
2022/01/20 08:37:33;;;;;;;11.57;4.35;;;3.70;99.90;;;;;;5078120;28;20400;-61
2022/01/20 08:40:04;;;;;;;10.75;4.88;;;3.80;99.90;;;;;;5072068;28;20787;-61
2022/01/20 08:42:30;;;;;;;12.77;4.83;;;3.80;99.90;;;;;;5079094;28;20422;-61
2022/01/20 08:44:56;;;;;;;11.60;4.20;;;3.90;99.90;;;;;;5076211;28;20490;-61
2022/01/20 08:47:22;;;;;;;10.77;4.80;;;3.80;99.90;;;;;;5082649;28;20409;-61
2022/01/20 08:49:49;;;;;;;13.87;4.40;;;3.90;99.90;;;;;;5084428;28;20401;-60
2022/01/20 08:52:17;;;;;;;12.70;5.53;;;3.90;99.90;;;;;;5092402;28;20405;-60
2022/01/20 08:54:45;;;;;;;14.48;4.88;;;3.90;99.90;;;;;;5083185;28;20408;-62
2022/01/20 08:57:11;;;;;;;12.00;4.82;;;4.10;99.90;;;;;;5084623;28;20936;-60
2022/01/20 08:59:40;;;;;;;13.65;5.18;;;4.20;99.90;;;;;;5095908;28;20486;-61
2022/01/20 09:02:06;;;;;;;15.13;5.22;;;4.30;99.90;;;;;;5090401;28;20389;-60
2022/01/20 09:04:39;;;;;;;13.00;4.90;;;4.20;99.90;;;;;;5104567;28;20402;-61
2022/01/20 09:07:05;;;;;;;16.75;5.18;;;5.10;99.90;;;;;;5077614;28;20997;-62
2022/01/20 09:09:33;;;;;;;12.73;5.30;;;4.50;99.90;;;;;;5079641;28;20473;-60
2022/01/20 09:17:34;;;;;;;15.30;5.53;;;4.50;99.90;;;;;;5076102;28;20493;-60
2022/01/20 09:20:00;;;;;;;11.52;5.00;;;4.50;99.90;;;;;;5077598;28;20884;-59
2022/01/20 09:22:29;;;;;;;14.32;5.30;;;4.50;99.90;;;;;;5116886;27;20481;-60
2022/01/20 09:24:54;;;;;;;17.70;6.13;;;5.30;99.90;;;;;;5082877;28;20406;-61
2022/01/20 09:27:20;;;;;;;13.13;5.72;;;4.50;99.90;;;;;;5091588;28;20430;-60
2022/01/20 09:29:46;;;;;;;13.30;4.77;;;4.60;99.90;;;;;;5083805;28;21262;-60
2022/01/20 09:32:13;;;;;;;9.82;4.90;;;4.50;99.90;;;;;;5078141;28;20535;-60
2022/01/20 09:34:40;;;;;;;13.38;5.25;;;4.40;99.90;;;;;;5084196;28;20406;-60
2022/01/20 09:37:06;;;;;;;11.65;5.07;;;4.40;99.90;;;;;;5087782;28;20444;-60
2022/01/20 09:39:32;;;;;;;13.00;6.00;;;4.40;99.90;;;;;;5090837;28;20457;-60
2022/01/20 09:41:58;;;;;;;21.13;6.87;;;4.40;99.90;;;;;;5090293;28;20397;-60
2022/01/20 09:44:25;;;;;;;14.20;5.80;;;4.40;99.90;;;;;;5084942;28;20416;-60
2022/01/20 09:46:52;;;;;;;16.23;5.50;;;4.50;99.90;;;;;;5084345;28;20862;-61
2022/01/20 09:49:17;;;;;;;15.10;5.10;;;4.50;99.90;;;;;;5073959;28;20395;-60
2022/01/20 09:51:43;;;;;;;13.88;5.07;;;4.40;99.90;;;;;;5070849;28;20756;-61
2022/01/20 09:54:09;;;;;;;13.82;5.80;;;4.50;99.90;;;;;;5070919;28;20474;-60
2022/01/20 09:56:36;;;;;;;13.95;5.50;;;4.40;99.90;;;;;;5070500;28;20380;-60
2022/01/20 09:59:04;;;;;;;12.73;5.40;;;5.90;99.90;;;;;;5070194;28;20410;-60
2022/01/20 10:01:49;;;;;;;14.80;6.07;;;4.40;99.90;;;;;;5070736;28;20419;-60
2022/01/20 10:04:19;;;;;;;11.70;4.90;;;4.50;99.90;;;;;;5070668;28;20411;-60
2022/01/20 10:06:57;;;;;;;15.70;5.45;;;4.50;99.90;;;;;;5070177;28;20384;-61
2022/01/20 10:09:33;;;;;;;13.23;5.28;;;4.50;99.90;;;;;;5069365;28;20392;-60
2022/01/20 10:11:59;;;;;;;13.88;5.00;;;4.50;99.90;;;;;;5069733;28;20419;-60
2022/01/20 10:14:24;;;;;;;13.10;5.40;;;4.60;99.90;;;;;;5089876;28;20429;-59
2022/01/20 10:16:51;;;;;;;14.40;4.93;;;4.50;99.90;;;;;;5089646;28;20833;-60
2022/01/20 10:19:29;;;;;;;11.10;4.80;;;4.60;99.90;;;;;;5071584;28;20442;-60
2022/01/20 10:21:55;;;;;;;12.00;5.00;;;4.60;99.90;;;;;;5073879;28;20406;-60
2022/01/20 10:24:21;;;;;;;17.67;5.57;;;4.50;99.90;;;;;;5082705;28;20472;-61
2022/01/20 10:26:50;;;;;;;16.40;5.97;;;4.40;99.90;;;;;;5081812;28;20757;-61
2022/01/20 10:29:17;;;;;;;13.95;5.88;;;4.50;99.90;;;;;;5080662;28;20386;-60
2022/01/20 10:31:46;;;;;;;14.95;5.68;;;5.00;99.90;;;;;;5081778;28;20396;-61
2022/01/20 10:34:30;;;;;;;11.82;5.80;;;4.60;99.90;;;;;;5080231;28;21222;-60
2022/01/20 10:37:00;;;;;;;14.57;5.00;;;4.60;99.90;;;;;;5069764;28;20375;-60
2022/01/20 10:39:37;;;;;;;10.60;4.57;;;4.60;99.90;;;;;;5069396;28;20388;-60
2022/01/20 10:42:08;;;;;;;9.43;4.70;;;4.60;99.90;;;;;;5069329;28;20380;-59
2022/01/20 10:44:52;;;;;;;11.40;4.80;;;4.10;99.90;;;;;;5069815;28;20403;-59
2022/01/20 10:47:26;;;;;;;14.07;4.78;;;5.00;99.90;;;;;;5070085;28;20430;-60
2022/01/20 10:49:52;;;;;;;10.85;4.20;;;5.20;99.90;;;;;;5069650;28;20384;-60
2022/01/20 10:52:20;;;;;;;12.07;4.15;;;5.10;99.90;;;;;;5070104;28;20380;-59
2022/01/20 10:54:49;;;;;;;12.38;4.65;;;5.10;99.90;;;;;;5068963;28;20933;-60
2022/01/20 10:57:16;;;;;;;10.27;4.72;;;5.30;99.90;;;;;;5068827;28;20419;-60
2022/01/20 10:59:53;;;;;;;8.07;3.95;;;5.10;99.90;;;;;;5069671;28;20375;-60
2022/01/20 11:02:22;;;;;;;10.30;4.20;;;4.80;99.90;;;;;;5069893;28;20388;-59
2022/01/20 11:04:48;;;;;;;11.20;5.53;;;4.70;99.90;;;;;;5068805;28;20450;-60
2022/01/20 11:07:14;;;;;;;12.52;5.00;;;4.90;99.90;;;;;;5068872;28;20446;-59
2022/01/20 11:09:45;;;;;;;12.55;5.25;;;6.50;99.90;;;;;;5069373;28;20760;-59
2022/01/20 11:12:15;;;;;;;15.38;4.50;;;4.90;99.90;;;;;;5069795;28;20379;-59
2022/01/20 11:14:44;;;;;;;11.18;5.00;;;4.90;99.90;;;;;;5084555;28;20385;-60
2022/01/20 11:17:21;;;;;;;20.27;4.60;;;4.80;99.90;;;;;;5089476;28;20397;-60
2022/01/20 11:19:47;;;;;;;11.50;3.58;;;4.80;99.90;;;;;;5088577;28;20385;-60
2022/01/20 11:22:14;;;;;;;11.90;4.45;;;4.90;99.90;;;;;;5088192;28;20948;-61
2022/01/20 11:24:42;;;;;;;13.20;3.65;;;4.90;99.90;;;;;;5089612;28;20402;-59
2022/01/20 11:27:11;;;;;;;11.20;4.53;;;5.00;99.90;;;;;;5089099;28;20381;-59
2022/01/20 11:29:56;;;;;;;10.00;4.47;;;5.20;99.90;;;;;;5088210;28;20485;-60
2022/01/20 11:32:23;;;;;;;11.18;4.85;;;5.30;99.90;;;;;;5089696;28;20863;-61
2022/01/20 11:35:07;;;;;;;10.83;5.00;;;5.40;99.90;;;;;;5088662;28;20402;-60
2022/01/20 11:37:39;;;;;;;14.15;4.30;;;6.20;99.90;;;;;;5089267;28;20897;-60
2022/01/20 11:40:16;;;;;;;13.88;4.85;;;6.80;99.90;;;;;;5088807;28;20382;-60
2022/01/20 11:42:55;;;;;;;14.47;5.13;;;7.00;99.90;;;;;;5089496;28;20378;-60
2022/01/20 11:45:51;;;;;;;14.18;4.20;;;6.80;99.90;;;;;;5089254;28;20855;-60
2022/01/20 11:48:26;;;;;;;10.70;3.00;;;6.60;99.90;;;;;;5088995;28;20398;-60
2022/01/20 11:51:09;;;;;;;10.38;3.40;;;5.80;99.90;;;;;;5088532;28;20378;-60
2022/01/20 11:53:42;;;;;;;11.60;3.45;;;5.50;99.90;;;;;;5089494;28;20392;-60
2022/01/20 11:56:09;;;;;;;8.10;2.90;;;5.30;99.90;;;;;;5088387;28;20402;-62
2022/01/20 11:58:35;;;;;;;7.47;3.20;;;5.40;99.90;;;;;;5089473;28;20410;-62
2022/01/20 12:01:06;;;;;;;14.30;4.20;;;5.40;99.90;;;;;;5088361;28;20413;-60
2022/01/20 12:03:35;;;;;;;11.13;2.33;;;5.40;99.90;;;;;;5088942;28;20458;-62
2022/01/20 12:06:04;;;;;;;4.80;0.90;;;5.00;99.90;;;;;;5088688;28;20383;-60
2022/01/20 12:08:30;;;;;;;5.47;0.75;;;4.10;99.90;;;;;;5088858;28;20814;-60
2022/01/20 12:11:01;;;;;;;6.18;1.17;;;3.20;99.90;;;;;;5087151;28;20466;-60
2022/01/20 12:13:28;;;;;;;7.32;1.25;;;2.60;99.90;;;;;;5088050;28;20448;-60
2022/01/20 12:15:57;;;;;;;7.20;1.60;;;2.50;99.90;;;;;;5087228;28;20414;-60
2022/01/20 12:18:23;;;;;;;7.20;2.00;;;2.20;99.90;;;;;;5088535;28;20450;-60
2022/01/20 12:20:48;;;;;;;8.93;2.30;;;2.20;99.90;;;;;;5090011;28;20385;-61
2022/01/20 12:23:14;;;;;;;8.52;2.60;;;3.20;99.90;;;;;;5092218;28;20406;-61
2022/01/20 12:25:40;;;;;;;9.77;2.20;;;3.80;99.90;;;;;;5092613;28;20728;-60
2022/01/20 12:28:09;;;;;;;7.70;2.70;;;2.70;99.90;;;;;;5091564;28;20525;-61
2022/01/20 12:30:36;;;;;;;8.23;2.65;;;2.50;99.90;;;;;;5092174;28;20414;-61
2022/01/20 12:33:14;;;;;;;10.02;2.85;;;2.40;99.90;;;;;;5091636;28;20386;-61
2022/01/20 12:35:50;;;;;;;10.70;3.22;;;2.50;99.90;;;;;;5090777;28;20792;-60
2022/01/20 12:38:22;;;;;;;7.35;2.47;;;2.50;99.90;;;;;;5092887;28;20379;-60
2022/01/20 12:41:05;;;;;;;7.50;2.72;;;2.60;99.90;;;;;;5091813;28;20393;-61
2022/01/20 12:43:39;;;;;;;11.13;2.50;;;2.50;99.90;;;;;;5089866;28;20398;-60
2022/01/20 12:46:06;;;;;;;11.90;2.80;;;2.40;99.90;;;;;;5091549;28;20413;-60
2022/01/20 12:48:32;;;;;;;12.45;2.90;;;2.40;99.90;;;;;;5091281;28;20413;-60
2022/01/20 12:51:05;;;;;;;8.10;3.22;;;3.10;99.90;;;;;;5091575;28;20389;-60
2022/01/20 12:53:42;;;;;;;11.35;2.88;;;2.50;99.90;;;;;;5100541;28;20384;-60
2022/01/20 12:56:13;;;;;;;8.50;2.30;;;2.40;99.90;;;;;;5106250;28;20787;-60
2022/01/20 12:58:51;;;;;;;7.43;2.70;;;2.50;99.90;;;;;;5112483;28;20408;-60
2022/01/20 13:01:17;;;;;;;8.43;2.90;;;1.10;99.90;;;;;;5079149;28;20392;-60
2022/01/20 13:03:43;;;;;;;9.25;2.90;;;2.50;99.90;;;;;;5092028;28;20402;-60
2022/01/20 13:06:20;;;;;;;12.98;3.53;;;2.50;99.90;;;;;;5102322;28;20416;-60
2022/01/20 13:09:07;;;;;;;9.68;3.03;;;2.50;99.90;;;;;;5097823;28;20428;-60
2022/01/20 13:11:40;;;;;;;14.13;3.80;;;2.50;99.90;;;;;;5071537;28;20395;-61
2022/01/20 13:14:07;;;;;;;9.98;3.20;;;3.40;99.90;;;;;;5078100;28;20444;-61
2022/01/20 13:16:33;;;;;;;10.93;3.10;;;2.40;99.90;;;;;;5071704;28;20407;-60
2022/01/20 13:19:04;;;;;;;10.32;3.40;;;2.40;99.90;;;;;;5071128;28;20713;-61
2022/01/20 13:21:41;;;;;;;9.75;2.80;;;2.40;99.90;;;;;;5084927;28;20809;-60
2022/01/20 13:24:08;;;;;;;7.80;3.08;;;2.40;99.90;;;;;;5088846;28;21008;-60
2022/01/20 13:26:46;;;;;;;11.75;4.50;;;2.40;99.90;;;;;;5089392;28;20907;-61
2022/01/20 13:29:12;;;;;;;9.55;2.60;;;4.20;99.90;;;;;;5073911;28;20378;-61
2022/01/20 13:31:38;;;;;;;11.48;3.20;;;2.40;99.90;;;;;;5090616;28;20413;-62
2022/01/20 13:34:13;;;;;;;9.60;3.88;;;2.30;99.90;;;;;;5090465;28;20847;-61
2022/01/20 13:36:47;;;;;;;12.10;3.20;;;2.40;99.90;;;;;;5090880;28;20417;-61
2022/01/20 13:39:13;;;;;;;10.50;3.30;;;2.50;99.90;;;;;;5092740;28;20379;-61
2022/01/20 13:41:42;;;;;;;10.52;2.95;;;2.60;99.90;;;;;;5071395;28;20376;-62
2022/01/20 13:47:09;;;;;;;13.35;3.50;;;2.60;99.90;;;;;;5070864;28;20926;-62
2022/01/20 13:49:47;;;;;;;11.98;3.28;;;2.80;99.90;;;;;;5071161;28;20380;-62
2022/01/20 13:52:14;;;;;;;10.52;3.10;;;2.70;99.90;;;;;;5074329;28;20390;-61
2022/01/20 13:54:46;;;;;;;8.02;3.28;;;3.90;99.90;;;;;;5089365;28;20397;-62
2022/01/20 13:57:11;;;;;;;9.98;2.90;;;2.50;99.90;;;;;;5090339;28;20461;-61
2022/01/20 13:59:52;;;;;;;11.23;3.30;;;4.00;99.90;;;;;;5089864;28;20463;-62
2022/01/20 14:02:18;;;;;;;10.02;3.38;;;2.50;99.90;;;;;;5083520;28;20447;-61
2022/01/20 14:04:43;;;;;;;9.23;3.20;;;2.50;99.90;;;;;;5090148;28;20410;-61
2022/01/20 14:07:09;;;;;;;10.30;3.30;;;2.50;99.90;;;;;;5089388;28;20382;-61